createdAt,value
2019-05-06T00:01:34.079Z,70.15
2019-05-06T00:04:04.877Z,70.28
2019-05-06T00:06:34.646Z,70.91
2019-05-06T00:09:05.446Z,71.38
2019-05-06T00:11:34.689Z,70.79
2019-05-06T00:14:04.543Z,70.43
2019-05-06T00:16:34.742Z,69.93
2019-05-06T00:19:04.983Z,70.64
2019-05-06T00:21:35.586Z,70.56
2019-05-06T00:24:04.786Z,69.95
2019-05-06T00:26:44.814Z,69.95
2019-05-06T00:29:15.330Z,70.56
2019-05-06T00:31:44.068Z,70.23
2019-05-06T00:34:13.853Z,70.38
2019-05-06T00:36:43.642Z,70.45
2019-05-06T00:39:16.820Z,69.87
2019-05-06T00:41:46.829Z,70.56
2019-05-06T00:44:15.267Z,70.30
2019-05-06T00:46:43.794Z,69.86
2019-05-06T00:49:14.361Z,70.31
2019-05-06T00:51:43.988Z,70.50
2019-05-06T00:54:16.882Z,70.70
2019-05-06T00:56:45.247Z,70.69
2019-05-06T00:59:14.339Z,71.44
2019-05-06T01:01:44.525Z,71.38
2019-05-06T01:04:13.932Z,70.99
2019-05-06T01:06:44.236Z,70.78
2019-05-06T01:09:14.931Z,70.81
2019-05-06T01:11:44.993Z,71.42
2019-05-06T01:14:17.763Z,70.78
2019-05-06T01:16:46.126Z,71.21
2019-05-06T01:19:14.591Z,71.23
2019-05-06T01:21:44.692Z,71.07
2019-05-06T01:24:14.700Z,70.33
2019-05-06T01:26:44.371Z,71.07
2019-05-06T01:29:14.601Z,71.00
2019-05-06T01:31:46.192Z,71.16
2019-05-06T01:34:15.019Z,70.72
2019-05-06T01:36:43.809Z,71.18
2019-05-06T01:39:20.079Z,70.91
2019-05-06T01:41:50.097Z,71.18
2019-05-06T01:44:18.968Z,70.66
2019-05-06T01:46:47.363Z,70.71
2019-05-06T01:49:15.826Z,71.11
2019-05-06T01:51:44.214Z,71.36
2019-05-06T01:54:14.198Z,72.00
2019-05-06T01:56:44.416Z,71.30
2019-05-06T01:59:13.984Z,70.95
2019-05-06T02:01:56.470Z,71.56
2019-05-06T02:04:13.803Z,71.75
2019-05-06T02:06:43.969Z,72.37
2019-05-06T02:09:15.356Z,71.99
2019-05-06T02:11:45.166Z,71.33
2019-05-06T02:14:14.110Z,72.03
2019-05-06T02:16:43.676Z,72.46
2019-05-06T02:19:12.139Z,72.15
2019-05-06T02:21:43.836Z,72.04
2019-05-06T02:24:19.809Z,72.67
2019-05-06T02:26:48.213Z,72.67
2019-05-06T02:29:18.259Z,72.81
2019-05-06T02:32:00.794Z,72.61
2019-05-06T02:34:45.506Z,72.48
2019-05-06T02:37:16.893Z,72.70
2019-05-06T02:39:45.269Z,72.03
2019-05-06T02:42:14.103Z,72.27
2019-05-06T02:44:44.113Z,71.82
2019-05-06T02:47:22.865Z,71.99
2019-05-06T02:49:56.419Z,72.13
2019-05-06T02:52:24.884Z,72.46
2019-05-06T02:54:53.994Z,72.34
2019-05-06T02:57:24.173Z,72.34
2019-05-06T02:59:55.266Z,71.84
2019-05-06T03:02:37.958Z,72.05
2019-05-06T03:04:54.439Z,71.45
2019-05-06T03:07:23.446Z,71.42
2019-05-06T03:09:53.212Z,71.46
2019-05-06T03:12:22.867Z,71.17
2019-05-06T03:14:53.514Z,71.13
2019-05-06T03:17:23.792Z,71.09
2019-05-06T03:19:53.780Z,71.05
2019-05-06T03:22:34.520Z,70.89
2019-05-06T03:25:07.554Z,71.30
2019-05-06T03:27:35.918Z,72.05
2019-05-06T03:30:06.880Z,71.94
2019-05-06T03:32:48.229Z,71.94
2019-05-06T03:35:27.499Z,70.97
2019-05-06T03:37:38.968Z,70.96
2019-05-06T03:40:07.486Z,70.86
2019-05-06T03:42:35.857Z,70.89
2019-05-06T03:45:08.656Z,71.19
2019-05-06T03:47:38.664Z,71.46
2019-05-06T03:50:07.371Z,70.86
2019-05-06T03:52:35.781Z,70.85
2019-05-06T03:55:04.998Z,70.76
2019-05-06T03:57:36.189Z,71.35
2019-05-06T04:00:06.397Z,71.49
2019-05-06T04:02:39.406Z,71.86
2019-05-06T04:05:06.324Z,71.99
2019-05-06T04:07:34.702Z,72.30
2019-05-06T04:10:04.041Z,72.20
2019-05-06T04:12:34.604Z,72.19
2019-05-06T04:15:04.223Z,73.37
2019-05-06T04:17:53.465Z,72.89
2019-05-06T04:20:37.422Z,73.14
2019-05-06T04:23:14.527Z,73.08
2019-05-06T04:25:43.899Z,73.06
2019-05-06T04:28:19.859Z,73.38
2019-05-06T04:30:49.378Z,73.26
2019-05-06T04:33:17.940Z,73.35
2019-05-06T04:35:46.384Z,72.56
2019-05-06T04:38:14.773Z,73.04
2019-05-06T04:40:44.152Z,72.25
2019-05-06T04:43:13.554Z,71.87
2019-05-06T04:45:43.842Z,71.62
2019-05-06T04:48:14.410Z,71.19
2019-05-06T04:50:44.998Z,70.92
2019-05-06T04:53:13.910Z,70.65
2019-05-06T04:55:43.569Z,70.29
2019-05-06T04:58:13.700Z,69.76
2019-05-06T05:00:44.602Z,69.47
2019-05-06T05:03:14.035Z,69.28
2019-05-06T05:05:44.909Z,69.33
2019-05-06T05:08:13.517Z,68.77
2019-05-06T05:11:00.286Z,68.77
2019-05-06T05:13:32.768Z,68.19
2019-05-06T05:16:05.249Z,67.80
2019-05-06T05:18:35.318Z,67.72
2019-05-06T05:21:04.491Z,67.25
2019-05-06T05:23:33.016Z,67.09
2019-05-06T05:26:04.968Z,66.89
2019-05-06T05:28:35.157Z,67.06
2019-05-06T05:31:04.475Z,66.10
2019-05-06T05:33:33.054Z,66.03
2019-05-06T05:36:02.073Z,65.79
2019-05-06T05:38:32.048Z,65.96
2019-05-06T05:41:03.074Z,65.15
2019-05-06T05:43:45.533Z,64.96
2019-05-06T05:46:14.034Z,65.31
2019-05-06T05:49:03.153Z,64.87
2019-05-06T05:51:32.783Z,65.74
2019-05-06T05:54:02.227Z,65.20
2019-05-06T05:56:32.897Z,65.10
2019-05-06T05:59:03.252Z,65.34
2019-05-06T06:01:32.657Z,65.26
2019-05-06T06:04:03.119Z,64.89
2019-05-06T06:06:33.253Z,64.58
2019-05-06T06:09:03.088Z,65.30
2019-05-06T06:11:33.417Z,65.13
2019-05-06T06:14:03.495Z,65.72
2019-05-06T06:16:45.571Z,65.40
2019-05-06T06:19:15.621Z,65.12
2019-05-06T06:21:54.819Z,64.44
2019-05-06T06:24:24.834Z,64.19
2019-05-06T06:26:53.205Z,63.74
2019-05-06T06:29:22.778Z,64.76
2019-05-06T06:31:53.070Z,63.33
2019-05-06T06:34:36.468Z,62.55
2019-05-06T06:37:22.686Z,62.79
2019-05-06T06:39:52.702Z,62.17
2019-05-06T06:42:22.218Z,62.31
2019-05-06T06:44:52.077Z,62.68
2019-05-06T06:47:22.511Z,60.78
2019-05-06T06:49:53.382Z,59.86
2019-05-06T06:52:23.141Z,59.60
2019-05-06T06:54:52.708Z,59.81
2019-05-06T06:57:22.977Z,59.55
2019-05-06T06:59:53.583Z,58.99
2019-05-06T07:02:32.228Z,58.54
2019-05-06T07:05:24.913Z,57.59
2019-05-06T07:07:47.313Z,58.31
2019-05-06T07:10:32.522Z,55.40
2019-05-06T07:13:03.022Z,54.13
2019-05-06T07:15:33.612Z,54.20
2019-05-06T07:18:02.526Z,53.10
2019-05-06T07:20:42.969Z,54.21
2019-05-06T07:23:23.894Z,53.74
2019-05-06T07:25:54.030Z,54.09
2019-05-06T07:28:24.365Z,52.61
2019-05-06T07:30:53.726Z,52.69
2019-05-06T07:33:22.960Z,52.08
2019-05-06T07:35:52.978Z,52.44
2019-05-06T07:38:23.207Z,51.49
2019-05-06T07:40:53.425Z,50.98
2019-05-06T07:43:38.409Z,50.58
2019-05-06T07:46:14.289Z,50.27
2019-05-06T07:48:42.972Z,51.98
2019-05-06T07:51:12.435Z,51.20
2019-05-06T07:53:42.712Z,49.84
2019-05-06T07:56:12.625Z,50.10
2019-05-06T07:58:43.330Z,49.74
2019-05-06T08:01:13.537Z,48.13
2019-05-06T08:03:42.892Z,49.26
2019-05-06T08:06:13.201Z,47.74
2019-05-06T08:08:43.252Z,47.05
2019-05-06T08:11:12.436Z,46.26
2019-05-06T08:13:43.259Z,45.89
2019-05-06T08:16:13.083Z,43.88
2019-05-06T08:18:42.590Z,45.08
2019-05-06T08:21:17.696Z,46.94
2019-05-06T08:23:47.803Z,41.11
2019-05-06T08:26:17.846Z,41.34
2019-05-06T08:28:46.321Z,41.67
2019-05-06T08:31:16.503Z,41.78
2019-05-06T08:33:44.888Z,38.52
2019-05-06T08:36:15.168Z,39.29
2019-05-06T08:38:56.380Z,39.11
2019-05-06T08:41:25.777Z,39.31
2019-05-06T08:43:54.724Z,38.92
2019-05-06T08:46:23.725Z,36.89
2019-05-06T08:48:52.500Z,38.60
2019-05-06T08:51:34.874Z,38.89
2019-05-06T08:54:22.818Z,36.86
2019-05-06T08:56:52.346Z,34.88
2019-05-06T08:59:21.110Z,34.30
2019-05-06T09:01:53.399Z,36.82
2019-05-06T09:04:22.772Z,39.23
2019-05-06T09:06:53.366Z,41.77
2019-05-06T09:09:22.395Z,41.21
2019-05-06T09:11:53.500Z,42.06
2019-05-06T09:14:23.748Z,42.84
2019-05-06T09:16:53.983Z,44.10
2019-05-06T09:19:24.434Z,45.71
2019-05-06T09:21:54.404Z,46.34
2019-05-06T09:24:23.360Z,44.81
2019-05-06T09:26:56.301Z,44.59
2019-05-06T09:29:32.600Z,42.96
2019-05-06T09:32:15.782Z,42.72
2019-05-06T09:34:52.669Z,41.99
2019-05-06T09:37:23.583Z,37.92
2019-05-06T09:39:53.223Z,37.20
2019-05-06T09:42:23.075Z,38.07
2019-05-06T09:44:53.850Z,39.07
2019-05-06T09:47:23.127Z,39.67
2019-05-06T09:49:53.131Z,40.90
2019-05-06T09:52:23.147Z,39.37
2019-05-06T09:54:55.866Z,38.02
2019-05-06T09:57:26.074Z,35.02
2019-05-06T09:59:54.508Z,34.98
2019-05-06T10:02:23.225Z,33.46
2019-05-06T10:04:52.349Z,34.42
2019-05-06T10:07:22.605Z,33.91
2019-05-06T10:09:52.570Z,33.43
2019-05-06T10:12:21.504Z,33.67
2019-05-06T10:14:52.951Z,33.40
2019-05-06T10:17:20.571Z,33.05
2019-05-06T10:19:49.225Z,33.77
2019-05-06T10:22:17.588Z,30.75
2019-05-06T10:24:45.985Z,35.15
2019-05-06T10:27:14.522Z,35.57
2019-05-06T10:29:44.579Z,34.67
2019-05-06T10:32:14.589Z,34.61
2019-05-06T10:34:43.556Z,36.16
2019-05-06T10:37:25.918Z,38.12
2019-05-06T10:40:09.234Z,36.02
2019-05-06T10:42:55.672Z,36.82
2019-05-06T10:45:32.168Z,36.86
2019-05-06T10:48:02.194Z,37.52
2019-05-06T10:50:31.808Z,34.63
2019-05-06T10:53:07.502Z,34.81
2019-05-06T10:55:37.621Z,32.28
2019-05-06T10:58:06.060Z,33.39
2019-05-06T11:00:34.661Z,31.56
2019-05-06T11:03:14.975Z,31.96
2019-05-06T11:05:43.767Z,29.49
2019-05-06T11:08:12.320Z,29.31
2019-05-06T11:10:44.304Z,27.97
2019-05-06T11:13:12.826Z,27.70
2019-05-06T11:15:43.408Z,29.06
2019-05-06T11:18:13.477Z,29.83
2019-05-06T11:20:43.952Z,28.75
2019-05-06T11:23:14.261Z,30.83
2019-05-06T11:25:43.229Z,30.29
2019-05-06T11:28:29.994Z,30.14
2019-05-06T11:31:02.258Z,28.85
2019-05-06T11:33:32.923Z,28.49
2019-05-06T11:36:03.212Z,30.40
2019-05-06T11:38:32.256Z,29.80
2019-05-06T11:41:00.997Z,28.85
2019-05-06T11:43:29.369Z,30.35
2019-05-06T11:45:59.258Z,30.35
2019-05-06T11:48:27.658Z,29.56
2019-05-06T11:50:57.720Z,29.19
2019-05-06T11:53:26.128Z,28.02
2019-05-06T11:55:55.149Z,30.21
2019-05-06T11:58:43.584Z,30.47
2019-05-06T12:01:29.797Z,29.57
2019-05-06T12:03:58.172Z,28.73
2019-05-06T12:06:26.549Z,29.82
2019-05-06T12:08:55.121Z,28.40
2019-05-06T12:11:23.909Z,29.59
2019-05-06T12:13:53.336Z,29.23
2019-05-06T12:16:25.928Z,30.60
2019-05-06T12:18:52.917Z,31.24
2019-05-06T12:21:23.136Z,32.44
2019-05-06T12:23:54.070Z,31.94
2019-05-06T12:26:22.375Z,32.35
2019-05-06T12:28:53.166Z,31.72
2019-05-06T12:31:23.392Z,31.43
2019-05-06T12:33:53.233Z,31.75
2019-05-06T12:36:23.237Z,31.78
2019-05-06T12:39:16.047Z,32.32
2019-05-06T12:41:59.105Z,30.39
2019-05-06T12:44:27.496Z,29.61
2019-05-06T12:47:03.700Z,31.14
2019-05-06T12:49:32.652Z,30.29
2019-05-06T12:52:01.267Z,30.68
2019-05-06T12:54:29.678Z,30.85
2019-05-06T12:56:59.457Z,30.80
2019-05-06T12:59:27.908Z,30.01
2019-05-06T13:01:56.343Z,30.20
2019-05-06T13:04:44.379Z,28.43
2019-05-06T13:06:54.903Z,29.05
2019-05-06T13:09:23.394Z,31.92
2019-05-06T13:11:53.260Z,28.98
2019-05-06T13:14:22.541Z,31.58
2019-05-06T13:16:53.237Z,30.69
2019-05-06T13:19:22.886Z,31.32
2019-05-06T13:21:51.388Z,31.48
2019-05-06T13:24:19.878Z,31.09
2019-05-06T13:26:48.297Z,32.67
2019-05-06T13:29:18.365Z,32.02
2019-05-06T13:31:46.732Z,32.03
2019-05-06T13:34:17.126Z,32.94
2019-05-06T13:36:46.125Z,32.94
2019-05-06T13:39:15.404Z,32.70
2019-05-06T13:41:44.314Z,33.46
2019-05-06T13:44:14.647Z,31.87
2019-05-06T13:46:44.723Z,32.99
2019-05-06T13:49:23.480Z,32.15
2019-05-06T13:51:56.191Z,33.20
2019-05-06T13:54:26.097Z,32.65
2019-05-06T13:56:54.489Z,32.69
2019-05-06T13:59:23.019Z,33.93
2019-05-06T14:02:06.678Z,35.03
2019-05-06T14:04:32.720Z,33.78
2019-05-06T14:07:03.488Z,33.89
2019-05-06T14:09:37.258Z,32.83
2019-05-06T14:12:02.582Z,30.53
2019-05-06T14:14:32.218Z,32.18
2019-05-06T14:17:01.076Z,33.76
2019-05-06T14:19:29.408Z,35.75
2019-05-06T14:21:59.380Z,33.06
2019-05-06T14:24:27.911Z,32.65
2019-05-06T14:26:59.096Z,36.53
2019-05-06T14:29:32.927Z,32.74
2019-05-06T14:32:06.288Z,33.88
2019-05-06T14:34:34.655Z,32.84
2019-05-06T14:37:03.406Z,32.82
2019-05-06T14:39:53.876Z,33.21
2019-05-06T14:42:19.226Z,36.98
2019-05-06T14:44:47.665Z,36.68
2019-05-06T14:47:23.306Z,33.99
2019-05-06T14:49:53.384Z,35.17
2019-05-06T14:52:22.589Z,37.42
2019-05-06T14:54:53.361Z,37.84
2019-05-06T14:57:23.268Z,35.60
2019-05-06T14:59:55.212Z,35.80
2019-05-06T15:02:26.021Z,36.01
2019-05-06T15:04:53.772Z,34.87
2019-05-06T15:07:22.216Z,36.97
2019-05-06T15:10:02.564Z,36.98
2019-05-06T15:12:22.945Z,37.12
2019-05-06T15:14:52.751Z,37.12
2019-05-06T15:17:22.964Z,37.66
2019-05-06T15:19:52.737Z,35.99
2019-05-06T15:22:22.589Z,35.57
2019-05-06T15:24:53.978Z,36.86
2019-05-06T15:27:22.974Z,39.07
2019-05-06T15:29:56.161Z,37.59
2019-05-06T15:32:29.545Z,37.85
2019-05-06T15:35:02.661Z,37.99
2019-05-06T15:37:33.862Z,38.83
2019-05-06T15:40:03.005Z,39.01
2019-05-06T15:42:34.264Z,38.74
2019-05-06T15:45:03.770Z,39.07
2019-05-06T15:47:32.663Z,38.94
2019-05-06T15:50:02.536Z,40.64
2019-05-06T15:52:32.442Z,37.98
2019-05-06T15:55:03.257Z,38.48
2019-05-06T15:57:32.763Z,35.11
2019-05-06T16:00:02.530Z,35.26
2019-05-06T16:02:31.186Z,35.23
2019-05-06T16:05:11.217Z,35.83
2019-05-06T16:07:36.770Z,34.81
2019-05-06T16:10:02.483Z,35.10
2019-05-06T16:12:31.107Z,37.01
2019-05-06T16:14:59.666Z,37.95
2019-05-06T16:17:28.053Z,36.18
2019-05-06T16:19:56.452Z,37.43
2019-05-06T16:22:25.299Z,38.40
2019-05-06T16:24:55.340Z,38.92
2019-05-06T16:27:23.737Z,39.00
2019-05-06T16:29:53.665Z,39.29
2019-05-06T16:32:23.555Z,37.85
2019-05-06T16:34:52.572Z,40.12
2019-05-06T16:37:22.539Z,39.39
2019-05-06T16:39:54.180Z,38.10
2019-05-06T16:42:22.454Z,38.38
2019-05-06T16:44:52.681Z,36.97
2019-05-06T16:47:37.734Z,37.15
2019-05-06T16:50:17.601Z,39.55
2019-05-06T16:52:46.011Z,36.41
2019-05-06T16:55:17.169Z,38.63
2019-05-06T16:57:52.614Z,38.21
2019-05-06T17:00:23.624Z,37.83
2019-05-06T17:02:58.820Z,39.37
2019-05-06T17:05:34.742Z,40.23
2019-05-06T17:08:03.399Z,38.48
2019-05-06T17:10:32.327Z,41.17
2019-05-06T17:13:02.941Z,40.62
2019-05-06T17:15:32.578Z,39.13
2019-05-06T17:18:03.011Z,39.61
2019-05-06T17:20:32.554Z,37.54
2019-05-06T17:23:02.890Z,37.92
2019-05-06T17:25:33.443Z,39.49
2019-05-06T17:28:16.497Z,37.86
2019-05-06T17:30:51.717Z,38.13
2019-05-06T17:33:39.145Z,37.14
2019-05-06T17:36:09.341Z,37.12
2019-05-06T17:38:41.831Z,36.91
2019-05-06T17:41:09.693Z,38.88
2019-05-06T17:43:40.890Z,37.47
2019-05-06T17:46:08.502Z,39.39
2019-05-06T17:48:44.485Z,39.50
2019-05-06T17:51:14.695Z,38.07
2019-05-06T17:53:54.866Z,39.60
2019-05-06T17:56:24.968Z,38.81
2019-05-06T17:58:53.479Z,39.79
2019-05-06T18:01:33.355Z,42.07
2019-05-06T18:04:02.360Z,40.58
2019-05-06T18:06:33.005Z,40.79
2019-05-06T18:09:02.540Z,41.23
2019-05-06T18:11:33.205Z,41.23
2019-05-06T18:14:03.839Z,42.48
2019-05-06T18:16:33.838Z,43.34
2019-05-06T18:19:03.133Z,43.86
2019-05-06T18:21:32.100Z,43.86
2019-05-06T18:24:02.839Z,44.17
2019-05-06T18:26:33.415Z,44.34
2019-05-06T18:29:03.687Z,44.96
2019-05-06T18:31:33.433Z,46.32
2019-05-06T18:34:03.002Z,46.85
2019-05-06T18:36:35.404Z,46.91
2019-05-06T18:39:07.383Z,47.70
2019-05-06T18:41:36.392Z,47.34
2019-05-06T18:44:05.152Z,47.68
2019-05-06T18:46:33.591Z,47.89
2019-05-06T18:49:02.636Z,48.24
2019-05-06T18:51:31.350Z,48.08
2019-05-06T18:53:59.898Z,47.40
2019-05-06T18:56:28.458Z,47.27
2019-05-06T18:58:56.814Z,47.36
2019-05-06T19:01:25.193Z,47.55
2019-05-06T19:03:57.374Z,47.58
2019-05-06T19:06:25.889Z,48.01
2019-05-06T19:08:55.908Z,48.44
2019-05-06T19:11:24.952Z,47.99
2019-05-06T19:13:54.829Z,48.31
2019-05-06T19:16:23.231Z,48.62
2019-05-06T19:18:52.435Z,48.23
2019-05-06T19:21:24.320Z,48.05
2019-05-06T19:23:54.798Z,48.86
2019-05-06T19:26:23.391Z,48.76
2019-05-06T19:28:53.345Z,50.66
2019-05-06T19:31:22.910Z,50.38
2019-05-06T19:33:52.660Z,50.40
2019-05-06T19:36:23.322Z,50.36
2019-05-06T19:38:51.312Z,49.89
2019-05-06T19:41:19.661Z,50.32
2019-05-06T19:43:48.191Z,50.36
2019-05-06T19:46:16.565Z,50.32
2019-05-06T19:48:47.755Z,50.66
2019-05-06T19:51:16.138Z,51.46
2019-05-06T19:53:44.510Z,51.73
2019-05-06T19:56:13.071Z,52.19
2019-05-06T19:58:42.845Z,53.82
2019-05-06T20:01:11.444Z,54.24
2019-05-06T20:03:40.251Z,53.82
2019-05-06T20:06:22.610Z,53.85
2019-05-06T20:09:09.264Z,53.27
2019-05-06T20:11:42.584Z,53.36
2019-05-06T20:14:10.965Z,53.67
2019-05-06T20:16:39.399Z,53.67
2019-05-06T20:19:07.760Z,53.83
2019-05-06T20:21:36.264Z,55.21
2019-05-06T20:24:04.850Z,55.18
2019-05-06T20:26:33.264Z,55.62
2019-05-06T20:29:02.290Z,55.81
2019-05-06T20:31:32.133Z,55.81
2019-05-06T20:34:02.272Z,56.02
2019-05-06T20:36:33.190Z,56.39
2019-05-06T20:39:02.559Z,56.51
2019-05-06T20:41:32.867Z,56.59
2019-05-06T20:44:02.702Z,56.99
2019-05-06T20:46:35.779Z,58.29
2019-05-06T20:49:04.428Z,58.76
2019-05-06T20:51:32.979Z,59.34
2019-05-06T20:54:01.369Z,59.28
2019-05-06T20:56:29.841Z,59.76
2019-05-06T20:58:58.200Z,60.62
2019-05-06T21:01:26.611Z,61.01
2019-05-06T21:03:54.977Z,61.00
2019-05-06T21:06:32.206Z,61.82
2019-05-06T21:09:02.151Z,62.26
2019-05-06T21:11:32.565Z,62.68
2019-05-06T21:14:02.215Z,64.50
2019-05-06T21:16:32.048Z,64.69
2019-05-06T21:19:02.939Z,64.80
2019-05-06T21:21:31.920Z,65.05
2019-05-06T21:24:02.076Z,64.08
2019-05-06T21:26:32.885Z,63.91
2019-05-06T21:29:03.226Z,64.07
2019-05-06T21:31:32.585Z,64.17
2019-05-06T21:34:19.000Z,64.75
2019-05-06T21:36:48.933Z,63.92
2019-05-06T21:39:17.424Z,64.47
2019-05-06T21:41:45.967Z,64.99
2019-05-06T21:44:14.333Z,66.09
2019-05-06T21:46:43.076Z,66.09
2019-05-06T21:49:12.271Z,66.17
2019-05-06T21:51:42.653Z,65.75
2019-05-06T21:54:12.610Z,66.28
2019-05-06T21:56:42.449Z,66.09
2019-05-06T21:59:12.959Z,66.82
2019-05-06T22:01:42.946Z,67.04
2019-05-06T22:04:12.839Z,67.57
2019-05-06T22:06:45.249Z,68.21
2019-05-06T22:09:12.553Z,67.07
2019-05-06T22:11:42.373Z,67.46
2019-05-06T22:14:12.265Z,66.95
2019-05-06T22:16:43.693Z,66.95
2019-05-06T22:19:13.727Z,67.81
2019-05-06T22:22:00.101Z,68.47
2019-05-06T22:24:46.619Z,68.55
2019-05-06T22:27:16.138Z,68.57
2019-05-06T22:29:46.026Z,68.33
2019-05-06T22:32:14.931Z,67.83
2019-05-06T22:34:43.627Z,68.26
2019-05-06T22:37:12.562Z,69.25
2019-05-06T22:39:43.580Z,68.66
2019-05-06T22:42:11.748Z,69.14
2019-05-06T22:44:42.710Z,69.02
2019-05-06T22:47:12.208Z,69.28
2019-05-06T22:49:41.013Z,69.49
2019-05-06T22:52:09.376Z,69.34
2019-05-06T22:54:37.761Z,70.26
2019-05-06T22:57:06.142Z,69.89
2019-05-06T22:59:34.539Z,69.61
2019-05-06T23:02:22.619Z,69.33
2019-05-06T23:04:55.955Z,70.74
2019-05-06T23:07:24.422Z,70.08
2019-05-06T23:09:52.848Z,69.99
2019-05-06T23:12:23.137Z,69.85
2019-05-06T23:14:53.085Z,69.67
2019-05-06T23:17:21.406Z,70.66
2019-05-06T23:19:49.825Z,70.28
2019-05-06T23:22:18.198Z,70.37
2019-05-06T23:24:46.614Z,70.75
2019-05-06T23:27:15.002Z,71.23
2019-05-06T23:29:44.948Z,70.54
2019-05-06T23:32:13.978Z,71.04
2019-05-06T23:34:43.248Z,70.67
2019-05-06T23:37:15.079Z,70.90
2019-05-06T23:40:19.600Z,70.85
2019-05-06T23:43:23.976Z,71.37
2019-05-06T23:46:28.662Z,71.03
2019-05-06T23:49:33.117Z,71.35
2019-05-06T23:52:38.061Z,71.93
2019-05-06T23:55:44.093Z,71.75
2019-05-06T23:58:14.516Z,72.24
